TimeCEST,TemperatureF,Dew PointF,Humidity,Sea Level PressureIn,VisibilityMPH,Wind Direction,Wind SpeedMPH,Gust SpeedMPH,PrecipitationIn,Events,Conditions,WindDirDegrees,DateUTC
12:20 AM,71.6,64.4,78,29.86,6.2,Variable,1.2,-,N/A,,Scattered Clouds,0,2013-08-27 22:20:00
12:50 AM,71.6,64.4,78,29.86,6.2,Variable,1.2,-,N/A,,Scattered Clouds,0,2013-08-27 22:50:00
1:20 AM,71.6,66.2,83,29.86,6.2,Variable,2.3,-,N/A,,Partly Cloudy,0,2013-08-27 23:20:00
1:50 AM,71.6,66.2,83,29.86,6.2,NNW,3.5,-,N/A,,Partly Cloudy,340,2013-08-27 23:50:00
2:00 AM,71,66,80,29.86,22,North,2.3,,,,Scattered Clouds,10,2013-08-28 00:00:00
2:20 AM,69.8,66.2,88,29.86,6.2,NNE,3.5,-,N/A,,Partly Cloudy,30,2013-08-28 00:20:00
2:50 AM,69.8,64.4,83,29.86,-9999.0,North,-9999.0,-,N/A,,Unknown,0,2013-08-28 00:50:00
3:00 AM,69.8,64.4,83,29.86,-9999.0,North,-9999.0,-,N/A,,Unknown,0,2013-08-28 01:00:00
3:20 AM,68.0,64.4,88,29.86,6.2,NE,3.5,-,N/A,,Partly Cloudy,40,2013-08-28 01:20:00
3:50 AM,69.8,66.2,88,29.86,6.2,NNE,2.3,-,N/A,,Partly Cloudy,20,2013-08-28 01:50:00
4:20 AM,69.8,66.2,88,29.86,6.2,NE,3.5,-,N/A,,Partly Cloudy,40,2013-08-28 02:20:00
4:50 AM,69.8,66.2,88,29.86,6.2,Variable,2.3,-,N/A,,Partly Cloudy,0,2013-08-28 02:50:00
5:00 AM,70,66,83,29.88,22,NNE,4.5,,,,Scattered Clouds,20,2013-08-28 03:00:00
5:20 AM,69.8,66.2,88,29.86,6.2,North,1.2,-,N/A,,Partly Cloudy,10,2013-08-28 03:20:00
5:50 AM,69.8,66.2,88,29.89,6.2,Variable,1.2,-,N/A,,Partly Cloudy,0,2013-08-28 03:50:00
6:20 AM,69.8,66.2,88,29.89,6.2,East,1.2,-,N/A,,Scattered Clouds,80,2013-08-28 04:20:00
6:50 AM,69.8,66.2,88,29.89,6.2,Variable,1.2,-,N/A,,Scattered Clouds,0,2013-08-28 04:50:00
7:20 AM,71.6,66.2,83,29.89,6.2,Calm,Calm,-,N/A,,Scattered Clouds,0,2013-08-28 05:20:00
7:50 AM,73.4,66.2,78,29.89,6.2,Variable,2.3,-,N/A,,Scattered Clouds,0,2013-08-28 05:50:00
8:00 AM,74,67,73,29.89,12,NE,2.3,,,,Partly Cloudy,50,2013-08-28 06:00:00
8:20 AM,75.2,68.0,78,29.89,6.2,Variable,2.3,-,N/A,,Partly Cloudy,0,2013-08-28 06:20:00
8:50 AM,75.2,66.2,73,29.89,6.2,ENE,3.5,-,N/A,,Partly Cloudy,60,2013-08-28 06:50:00
9:20 AM,75.2,66.2,73,29.92,6.2,NE,3.5,-,N/A,,Scattered Clouds,50,2013-08-28 07:20:00
9:50 AM,77.0,66.2,69,29.92,6.2,Variable,2.3,-,N/A,,Scattered Clouds,0,2013-08-28 07:50:00
10:20 AM,77.0,66.2,69,29.92,6.2,Variable,1.2,-,N/A,,Scattered Clouds,0,2013-08-28 08:20:00
10:50 AM,78.8,68.0,69,29.92,6.2,SSW,9.2,-,N/A,,Scattered Clouds,200,2013-08-28 08:50:00
11:00 AM,80,67,55,29.93,12,SSW,15.7,,,,Scattered Clouds,200,2013-08-28 09:00:00
11:20 AM,80.6,64.4,58,29.92,6.2,Variable,6.9,-,N/A,,Scattered Clouds,0,2013-08-28 09:20:00
11:50 AM,80.6,68.0,65,29.92,6.2,South,9.2,-,N/A,,Scattered Clouds,190,2013-08-28 09:50:00
12:20 PM,82.4,62.6,51,29.92,6.2,SSW,8.1,-,N/A,,Partly Cloudy,200,2013-08-28 10:20:00
12:50 PM,82.4,59.0,45,29.92,6.2,WNW,10.4,-,N/A,,Partly Cloudy,290,2013-08-28 10:50:00
1:20 PM,84.2,55.4,37,29.92,6.2,West,10.4,-,N/A,,Partly Cloudy,270,2013-08-28 11:20:00
1:50 PM,82.4,55.4,39,29.92,6.2,West,8.1,-,N/A,,Partly Cloudy,280,2013-08-28 11:50:00
2:00 PM,83,60,35,29.92,22,West,15.7,,,,Scattered Clouds,270,2013-08-28 12:00:00
2:20 PM,82.4,60.8,48,29.92,6.2,WSW,9.2,-,N/A,,Partly Cloudy,250,2013-08-28 12:20:00
2:50 PM,82.4,55.4,39,29.92,6.2,WSW,9.2,-,N/A,,Partly Cloudy,240,2013-08-28 12:50:00
3:20 PM,82.4,57.2,42,29.92,6.2,West,10.4,-,N/A,,Partly Cloudy,280,2013-08-28 13:20:00
3:50 PM,82.4,62.6,51,29.92,6.2,West,12.7,-,N/A,,Scattered Clouds,260,2013-08-28 13:50:00
4:20 PM,80.6,64.4,58,29.92,6.2,West,11.5,-,N/A,,Scattered Clouds,270,2013-08-28 14:20:00
4:50 PM,80.6,62.6,54,29.92,6.2,West,12.7,-,N/A,,Partly Cloudy,270,2013-08-28 14:50:00
5:20 PM,80.6,59.0,48,29.95,6.2,West,12.7,-,N/A,,Scattered Clouds,260,2013-08-28 15:20:00
5:50 PM,80.6,62.6,54,29.95,6.2,West,11.5,-,N/A,,Scattered Clouds,260,2013-08-28 15:50:00
6:20 PM,78.8,62.6,57,29.95,6.2,WSW,10.4,-,N/A,,Scattered Clouds,250,2013-08-28 16:20:00
6:50 PM,77.0,60.8,57,29.95,6.2,West,6.9,-,N/A,,Scattered Clouds,270,2013-08-28 16:50:00
7:20 PM,77.0,62.6,61,29.95,6.2,WSW,9.2,-,N/A,,Partly Cloudy,250,2013-08-28 17:20:00
7:50 PM,75.2,60.8,61,29.98,6.2,Variable,6.9,-,N/A,,Partly Cloudy,0,2013-08-28 17:50:00
8:00 PM,75,61,52,29.98,22,West,8.1,,,,Scattered Clouds,260,2013-08-28 18:00:00
8:20 PM,75.2,60.8,61,29.98,6.2,WSW,6.9,-,N/A,,Partly Cloudy,250,2013-08-28 18:20:00
8:50 PM,75.2,60.8,61,29.98,-9999.0,WSW,5.8,-,N/A,,Clear,240,2013-08-28 18:50:00
9:20 PM,73.4,60.8,65,29.98,-9999.0,WSW,5.8,-,N/A,,Clear,250,2013-08-28 19:20:00
9:50 PM,73.4,60.8,65,29.98,-9999.0,WSW,4.6,-,N/A,,Clear,240,2013-08-28 19:50:00
10:20 PM,71.6,60.8,69,29.98,-9999.0,Variable,1.2,-,N/A,,Clear,0,2013-08-28 20:20:00
10:50 PM,73.4,59.0,61,29.98,-9999.0,Variable,2.3,-,N/A,,Clear,0,2013-08-28 20:50:00
11:20 PM,71.6,59.0,64,30.01,-9999.0,West,2.3,-,N/A,,Clear,270,2013-08-28 21:20:00
11:50 PM,71.6,60.8,69,29.98,-9999.0,WSW,2.3,-,N/A,,Clear,250,2013-08-28 21:50:00